sensor_id;sensor_type;location;lat;lon;timestamp;P1;durP1;ratioP1;P2;durP2;ratioP2
21501;SDS011;27639;48.674;9.242;2022-07-12T00:01:26;5.05;;;3.08;;
21501;SDS011;27639;48.674;9.242;2022-07-12T00:03:51;5.30;;;3.10;;
21501;SDS011;27639;48.674;9.242;2022-07-12T00:06:17;5.85;;;3.38;;
21501;SDS011;27639;48.674;9.242;2022-07-12T00:08:42;5.85;;;3.40;;
21501;SDS011;27639;48.674;9.242;2022-07-12T00:11:08;5.20;;;3.40;;
21501;SDS011;27639;48.674;9.242;2022-07-12T00:13:34;4.65;;;3.28;;
21501;SDS011;27639;48.674;9.242;2022-07-12T00:16:00;5.43;;;3.38;;
21501;SDS011;27639;48.674;9.242;2022-07-12T00:18:25;5.47;;;3.40;;
21501;SDS011;27639;48.674;9.242;2022-07-12T00:20:51;6.05;;;3.20;;
21501;SDS011;27639;48.674;9.242;2022-07-12T00:23:17;5.50;;;3.80;;
21501;SDS011;27639;48.674;9.242;2022-07-12T00:25:42;4.70;;;3.40;;
21501;SDS011;27639;48.674;9.242;2022-07-12T00:28:08;4.68;;;3.03;;
21501;SDS011;27639;48.674;9.242;2022-07-12T00:30:34;5.65;;;3.83;;
21501;SDS011;27639;48.674;9.242;2022-07-12T00:33:00;5.15;;;3.10;;
21501;SDS011;27639;48.674;9.242;2022-07-12T00:35:25;5.43;;;3.50;;
21501;SDS011;27639;48.674;9.242;2022-07-12T00:37:51;5.35;;;3.17;;
21501;SDS011;27639;48.674;9.242;2022-07-12T00:40:17;6.55;;;3.25;;
21501;SDS011;27639;48.674;9.242;2022-07-12T00:42:43;6.05;;;3.45;;
21501;SDS011;27639;48.674;9.242;2022-07-12T00:45:08;4.43;;;2.97;;
21501;SDS011;27639;48.674;9.242;2022-07-12T00:47:38;5.80;;;3.67;;
21501;SDS011;27639;48.674;9.242;2022-07-12T00:50:08;4.72;;;2.83;;
21501;SDS011;27639;48.674;9.242;2022-07-12T00:52:42;4.60;;;3.17;;
21501;SDS011;27639;48.674;9.242;2022-07-12T00:55:09;5.82;;;3.67;;
21501;SDS011;27639;48.674;9.242;2022-07-12T00:57:36;5.07;;;3.50;;
21501;SDS011;27639;48.674;9.242;2022-07-12T01:00:03;5.05;;;3.20;;
21501;SDS011;27639;48.674;9.242;2022-07-12T01:02:31;6.25;;;3.60;;
21501;SDS011;27639;48.674;9.242;2022-07-12T01:04:58;4.60;;;3.28;;
21501;SDS011;27639;48.674;9.242;2022-07-12T01:07:25;4.25;;;3.15;;
21501;SDS011;27639;48.674;9.242;2022-07-12T01:09:52;5.03;;;3.58;;
21501;SDS011;27639;48.674;9.242;2022-07-12T01:12:20;4.28;;;2.95;;
21501;SDS011;27639;48.674;9.242;2022-07-12T01:14:51;5.45;;;3.58;;
21501;SDS011;27639;48.674;9.242;2022-07-12T01:17:20;5.47;;;3.25;;
21501;SDS011;27639;48.674;9.242;2022-07-12T01:19:47;5.88;;;3.58;;
21501;SDS011;27639;48.674;9.242;2022-07-12T01:22:14;5.70;;;3.40;;
21501;SDS011;27639;48.674;9.242;2022-07-12T01:24:41;5.18;;;3.45;;
21501;SDS011;27639;48.674;9.242;2022-07-12T01:27:07;4.43;;;3.17;;
21501;SDS011;27639;48.674;9.242;2022-07-12T01:29:33;4.40;;;2.95;;
21501;SDS011;27639;48.674;9.242;2022-07-12T01:32:00;5.78;;;3.10;;
21501;SDS011;27639;48.674;9.242;2022-07-12T01:34:48;4.65;;;3.35;;
21501;SDS011;27639;48.674;9.242;2022-07-12T01:37:16;4.60;;;3.20;;
21501;SDS011;27639;48.674;9.242;2022-07-12T01:39:43;4.57;;;3.38;;
21501;SDS011;27639;48.674;9.242;2022-07-12T01:42:09;5.65;;;3.55;;
21501;SDS011;27639;48.674;9.242;2022-07-12T01:44:35;6.57;;;3.58;;
21501;SDS011;27639;48.674;9.242;2022-07-12T01:47:02;5.07;;;3.47;;
21501;SDS011;27639;48.674;9.242;2022-07-12T01:49:28;5.18;;;3.85;;
21501;SDS011;27639;48.674;9.242;2022-07-12T01:51:57;6.20;;;3.03;;
21501;SDS011;27639;48.674;9.242;2022-07-12T01:54:24;6.43;;;3.25;;
21501;SDS011;27639;48.674;9.242;2022-07-12T01:56:51;5.35;;;3.33;;
21501;SDS011;27639;48.674;9.242;2022-07-12T01:59:17;5.82;;;3.45;;
21501;SDS011;27639;48.674;9.242;2022-07-12T02:01:44;6.65;;;4.13;;
21501;SDS011;27639;48.674;9.242;2022-07-12T02:04:10;5.07;;;3.80;;
21501;SDS011;27639;48.674;9.242;2022-07-12T02:06:35;5.28;;;3.60;;
21501;SDS011;27639;48.674;9.242;2022-07-12T02:09:01;6.50;;;4.18;;
21501;SDS011;27639;48.674;9.242;2022-07-12T02:11:27;5.78;;;3.95;;
21501;SDS011;27639;48.674;9.242;2022-07-12T02:13:52;7.03;;;3.88;;
21501;SDS011;27639;48.674;9.242;2022-07-12T02:16:18;6.55;;;3.88;;
21501;SDS011;27639;48.674;9.242;2022-07-12T02:18:43;6.38;;;3.83;;
21501;SDS011;27639;48.674;9.242;2022-07-12T02:21:09;5.15;;;3.83;;
21501;SDS011;27639;48.674;9.242;2022-07-12T02:23:35;5.53;;;3.88;;
21501;SDS011;27639;48.674;9.242;2022-07-12T02:26:00;5.80;;;4.25;;
21501;SDS011;27639;48.674;9.242;2022-07-12T02:28:26;6.03;;;3.90;;
21501;SDS011;27639;48.674;9.242;2022-07-12T02:30:52;6.03;;;3.83;;
21501;SDS011;27639;48.674;9.242;2022-07-12T02:33:17;5.60;;;3.92;;
21501;SDS011;27639;48.674;9.242;2022-07-12T02:35:44;5.18;;;4.05;;
21501;SDS011;27639;48.674;9.242;2022-07-12T02:38:10;6.05;;;4.13;;
21501;SDS011;27639;48.674;9.242;2022-07-12T02:40:36;6.90;;;4.28;;
21501;SDS011;27639;48.674;9.242;2022-07-12T02:43:23;7.35;;;4.22;;
21501;SDS011;27639;48.674;9.242;2022-07-12T02:45:51;7.10;;;3.88;;
21501;SDS011;27639;48.674;9.242;2022-07-12T02:48:17;6.20;;;3.78;;
21501;SDS011;27639;48.674;9.242;2022-07-12T02:50:44;6.05;;;4.18;;
21501;SDS011;27639;48.674;9.242;2022-07-12T02:53:10;5.03;;;3.75;;
21501;SDS011;27639;48.674;9.242;2022-07-12T02:55:37;5.32;;;3.65;;
21501;SDS011;27639;48.674;9.242;2022-07-12T02:58:06;6.25;;;3.63;;
21501;SDS011;27639;48.674;9.242;2022-07-12T03:00:33;6.40;;;3.90;;
21501;SDS011;27639;48.674;9.242;2022-07-12T03:02:59;7.38;;;4.60;;
21501;SDS011;27639;48.674;9.242;2022-07-12T03:05:25;5.68;;;3.97;;
21501;SDS011;27639;48.674;9.242;2022-07-12T03:07:51;6.05;;;4.22;;
21501;SDS011;27639;48.674;9.242;2022-07-12T03:10:17;6.28;;;3.97;;
21501;SDS011;27639;48.674;9.242;2022-07-12T03:12:42;6.43;;;3.88;;
21501;SDS011;27639;48.674;9.242;2022-07-12T03:15:08;7.22;;;4.15;;
21501;SDS011;27639;48.674;9.242;2022-07-12T03:17:34;5.95;;;3.88;;
21501;SDS011;27639;48.674;9.242;2022-07-12T03:20:00;6.55;;;4.00;;
21501;SDS011;27639;48.674;9.242;2022-07-12T03:22:26;5.88;;;3.90;;
21501;SDS011;27639;48.674;9.242;2022-07-12T03:24:52;7.25;;;3.80;;
21501;SDS011;27639;48.674;9.242;2022-07-12T03:27:18;7.43;;;4.28;;
21501;SDS011;27639;48.674;9.242;2022-07-12T03:29:44;5.35;;;3.55;;
21501;SDS011;27639;48.674;9.242;2022-07-12T03:32:09;5.72;;;3.60;;
21501;SDS011;27639;48.674;9.242;2022-07-12T03:34:35;5.72;;;3.80;;
21501;SDS011;27639;48.674;9.242;2022-07-12T03:37:01;5.93;;;4.20;;
21501;SDS011;27639;48.674;9.242;2022-07-12T03:39:28;4.75;;;3.22;;
21501;SDS011;27639;48.674;9.242;2022-07-12T03:41:53;6.22;;;4.00;;
21501;SDS011;27639;48.674;9.242;2022-07-12T03:44:19;5.28;;;3.63;;
21501;SDS011;27639;48.674;9.242;2022-07-12T03:46:45;5.32;;;4.00;;
21501;SDS011;27639;48.674;9.242;2022-07-12T03:49:11;6.22;;;3.70;;
21501;SDS011;27639;48.674;9.242;2022-07-12T03:51:37;6.32;;;3.92;;
21501;SDS011;27639;48.674;9.242;2022-07-12T03:54:02;5.57;;;4.20;;
21501;SDS011;27639;48.674;9.242;2022-07-12T03:56:30;5.90;;;3.85;;
21501;SDS011;27639;48.674;9.242;2022-07-12T03:59:14;6.95;;;4.13;;
21501;SDS011;27639;48.674;9.242;2022-07-12T04:01:39;6.00;;;4.07;;
21501;SDS011;27639;48.674;9.242;2022-07-12T04:04:05;7.10;;;3.90;;
21501;SDS011;27639;48.674;9.242;2022-07-12T04:06:30;5.90;;;3.67;;
21501;SDS011;27639;48.674;9.242;2022-07-12T04:08:56;6.43;;;3.83;;
21501;SDS011;27639;48.674;9.242;2022-07-12T04:11:22;6.65;;;3.90;;
21501;SDS011;27639;48.674;9.242;2022-07-12T04:13:47;6.28;;;3.60;;
21501;SDS011;27639;48.674;9.242;2022-07-12T04:16:13;5.07;;;3.70;;
21501;SDS011;27639;48.674;9.242;2022-07-12T04:18:38;6.88;;;3.88;;
21501;SDS011;27639;48.674;9.242;2022-07-12T04:21:04;9.35;;;3.90;;
21501;SDS011;27639;48.674;9.242;2022-07-12T04:23:29;6.07;;;3.85;;
21501;SDS011;27639;48.674;9.242;2022-07-12T04:25:55;7.00;;;4.22;;
21501;SDS011;27639;48.674;9.242;2022-07-12T04:28:21;5.95;;;4.20;;
21501;SDS011;27639;48.674;9.242;2022-07-12T04:30:46;7.28;;;4.38;;
21501;SDS011;27639;48.674;9.242;2022-07-12T04:33:13;6.35;;;4.38;;
21501;SDS011;27639;48.674;9.242;2022-07-12T04:35:39;5.30;;;4.00;;
21501;SDS011;27639;48.674;9.242;2022-07-12T04:38:05;6.32;;;4.15;;
21501;SDS011;27639;48.674;9.242;2022-07-12T04:40:32;6.40;;;4.00;;
21501;SDS011;27639;48.674;9.242;2022-07-12T04:42:57;6.53;;;4.35;;
21501;SDS011;27639;48.674;9.242;2022-07-12T04:45:23;7.85;;;4.38;;
21501;SDS011;27639;48.674;9.242;2022-07-12T04:47:48;5.78;;;4.13;;
21501;SDS011;27639;48.674;9.242;2022-07-12T04:50:14;6.95;;;4.38;;
21501;SDS011;27639;48.674;9.242;2022-07-12T04:52:39;7.80;;;4.05;;
21501;SDS011;27639;48.674;9.242;2022-07-12T04:55:06;5.82;;;3.63;;
21501;SDS011;27639;48.674;9.242;2022-07-12T04:57:32;6.18;;;3.85;;
21501;SDS011;27639;48.674;9.242;2022-07-12T04:59:57;6.43;;;4.20;;
21501;SDS011;27639;48.674;9.242;2022-07-12T05:02:23;7.13;;;3.88;;
21501;SDS011;27639;48.674;9.242;2022-07-12T05:04:49;5.85;;;4.45;;
21501;SDS011;27639;48.674;9.242;2022-07-12T05:07:14;6.45;;;4.03;;
21501;SDS011;27639;48.674;9.242;2022-07-12T05:09:40;7.55;;;4.20;;
21501;SDS011;27639;48.674;9.242;2022-07-12T05:12:06;5.40;;;4.03;;
21501;SDS011;27639;48.674;9.242;2022-07-12T05:14:32;7.20;;;4.70;;
21501;SDS011;27639;48.674;9.242;2022-07-12T05:16:57;6.43;;;4.15;;
21501;SDS011;27639;48.674;9.242;2022-07-12T05:19:23;6.88;;;4.72;;
21501;SDS011;27639;48.674;9.242;2022-07-12T05:21:49;8.05;;;4.40;;
21501;SDS011;27639;48.674;9.242;2022-07-12T05:24:15;5.80;;;4.60;;
21501;SDS011;27639;48.674;9.242;2022-07-12T05:26:41;7.22;;;4.10;;
21501;SDS011;27639;48.674;9.242;2022-07-12T05:29:07;6.68;;;4.85;;
21501;SDS011;27639;48.674;9.242;2022-07-12T05:31:32;6.35;;;4.78;;
21501;SDS011;27639;48.674;9.242;2022-07-12T05:33:59;5.82;;;4.45;;
21501;SDS011;27639;48.674;9.242;2022-07-12T05:36:25;7.05;;;4.40;;
21501;SDS011;27639;48.674;9.242;2022-07-12T05:38:50;6.00;;;4.55;;
21501;SDS011;27639;48.674;9.242;2022-07-12T05:41:16;6.10;;;4.38;;
21501;SDS011;27639;48.674;9.242;2022-07-12T05:43:42;6.70;;;4.90;;
21501;SDS011;27639;48.674;9.242;2022-07-12T05:46:09;6.88;;;4.43;;
21501;SDS011;27639;48.674;9.242;2022-07-12T05:48:35;6.97;;;4.78;;
21501;SDS011;27639;48.674;9.242;2022-07-12T05:51:01;7.00;;;4.90;;
21501;SDS011;27639;48.674;9.242;2022-07-12T05:53:46;7.13;;;3.95;;
21501;SDS011;27639;48.674;9.242;2022-07-12T05:56:12;5.80;;;4.50;;
21501;SDS011;27639;48.674;9.242;2022-07-12T05:58:38;7.65;;;4.93;;
21501;SDS011;27639;48.674;9.242;2022-07-12T06:01:04;6.00;;;4.20;;
21501;SDS011;27639;48.674;9.242;2022-07-12T06:03:30;5.88;;;4.28;;
21501;SDS011;27639;48.674;9.242;2022-07-12T06:05:56;7.43;;;5.18;;
21501;SDS011;27639;48.674;9.242;2022-07-12T06:08:21;7.00;;;4.57;;
21501;SDS011;27639;48.674;9.242;2022-07-12T06:10:47;7.72;;;5.05;;
21501;SDS011;27639;48.674;9.242;2022-07-12T06:13:13;6.18;;;4.63;;
21501;SDS011;27639;48.674;9.242;2022-07-12T06:15:38;6.82;;;4.40;;
21501;SDS011;27639;48.674;9.242;2022-07-12T06:18:04;6.20;;;4.43;;
21501;SDS011;27639;48.674;9.242;2022-07-12T06:20:29;6.53;;;4.32;;
21501;SDS011;27639;48.674;9.242;2022-07-12T06:22:55;5.68;;;4.30;;
21501;SDS011;27639;48.674;9.242;2022-07-12T06:25:21;6.95;;;4.10;;
21501;SDS011;27639;48.674;9.242;2022-07-12T06:27:48;6.10;;;4.30;;
21501;SDS011;27639;48.674;9.242;2022-07-12T06:30:20;6.10;;;4.25;;
21501;SDS011;27639;48.674;9.242;2022-07-12T06:32:46;5.70;;;4.05;;
21501;SDS011;27639;48.674;9.242;2022-07-12T06:35:15;5.72;;;3.92;;
21501;SDS011;27639;48.674;9.242;2022-07-12T06:37:41;5.60;;;3.60;;
21501;SDS011;27639;48.674;9.242;2022-07-12T06:40:07;5.72;;;4.40;;
21501;SDS011;27639;48.674;9.242;2022-07-12T06:42:34;6.38;;;4.47;;
21501;SDS011;27639;48.674;9.242;2022-07-12T06:45:00;6.80;;;4.00;;
21501;SDS011;27639;48.674;9.242;2022-07-12T06:47:26;6.78;;;4.30;;
21501;SDS011;27639;48.674;9.242;2022-07-12T06:49:52;5.65;;;3.28;;
21501;SDS011;27639;48.674;9.242;2022-07-12T06:52:18;5.40;;;3.05;;
21501;SDS011;27639;48.674;9.242;2022-07-12T06:54:43;6.88;;;3.20;;
21501;SDS011;27639;48.674;9.242;2022-07-12T06:57:09;4.88;;;2.45;;
21501;SDS011;27639;48.674;9.242;2022-07-12T06:59:35;7.75;;;2.63;;
21501;SDS011;27639;48.674;9.242;2022-07-12T07:02:01;3.75;;;2.03;;
21501;SDS011;27639;48.674;9.242;2022-07-12T07:04:26;3.53;;;2.17;;
21501;SDS011;27639;48.674;9.242;2022-07-12T07:06:52;4.93;;;2.40;;
21501;SDS011;27639;48.674;9.242;2022-07-12T07:09:18;3.63;;;1.83;;
21501;SDS011;27639;48.674;9.242;2022-07-12T07:11:43;3.25;;;1.90;;
21501;SDS011;27639;48.674;9.242;2022-07-12T07:14:09;3.03;;;1.60;;
21501;SDS011;27639;48.674;9.242;2022-07-12T07:16:35;3.22;;;1.65;;
21501;SDS011;27639;48.674;9.242;2022-07-12T07:19:01;2.80;;;1.60;;
21501;SDS011;27639;48.674;9.242;2022-07-12T07:21:27;3.22;;;1.40;;
21501;SDS011;27639;48.674;9.242;2022-07-12T07:23:53;2.55;;;1.20;;
21501;SDS011;27639;48.674;9.242;2022-07-12T07:26:20;2.70;;;1.50;;
21501;SDS011;27639;48.674;9.242;2022-07-12T07:28:46;2.08;;;1.08;;
21501;SDS011;27639;48.674;9.242;2022-07-12T07:31:33;2.80;;;1.30;;
21501;SDS011;27639;48.674;9.242;2022-07-12T07:33:59;3.67;;;1.30;;
21501;SDS011;27639;48.674;9.242;2022-07-12T07:36:25;2.60;;;1.40;;
21501;SDS011;27639;48.674;9.242;2022-07-12T07:38:51;3.03;;;1.30;;
21501;SDS011;27639;48.674;9.242;2022-07-12T07:41:16;3.03;;;1.63;;
21501;SDS011;27639;48.674;9.242;2022-07-12T07:43:42;4.28;;;1.48;;
21501;SDS011;27639;48.674;9.242;2022-07-12T07:46:08;2.45;;;1.27;;
21501;SDS011;27639;48.674;9.242;2022-07-12T07:48:33;3.67;;;1.55;;
21501;SDS011;27639;48.674;9.242;2022-07-12T07:50:59;5.15;;;1.60;;
21501;SDS011;27639;48.674;9.242;2022-07-12T07:53:24;3.17;;;1.40;;
21501;SDS011;27639;48.674;9.242;2022-07-12T07:55:50;2.33;;;1.15;;
21501;SDS011;27639;48.674;9.242;2022-07-12T07:58:16;3.20;;;1.42;;
21501;SDS011;27639;48.674;9.242;2022-07-12T08:00:41;3.83;;;1.30;;
21501;SDS011;27639;48.674;9.242;2022-07-12T08:03:07;3.25;;;1.25;;
21501;SDS011;27639;48.674;9.242;2022-07-12T08:05:33;3.72;;;1.55;;
21501;SDS011;27639;48.674;9.242;2022-07-12T08:07:58;2.00;;;0.85;;
21501;SDS011;27639;48.674;9.242;2022-07-12T08:10:24;2.80;;;1.00;;
21501;SDS011;27639;48.674;9.242;2022-07-12T08:12:50;2.35;;;1.10;;
21501;SDS011;27639;48.674;9.242;2022-07-12T08:15:16;2.55;;;0.90;;
21501;SDS011;27639;48.674;9.242;2022-07-12T08:17:42;2.30;;;1.17;;
21501;SDS011;27639;48.674;9.242;2022-07-12T08:20:07;1.85;;;0.80;;
21501;SDS011;27639;48.674;9.242;2022-07-12T08:22:33;3.22;;;1.50;;
21501;SDS011;27639;48.674;9.242;2022-07-12T08:24:59;3.15;;;1.42;;
21501;SDS011;27639;48.674;9.242;2022-07-12T08:27:25;2.88;;;1.48;;
21501;SDS011;27639;48.674;9.242;2022-07-12T08:29:50;2.15;;;1.13;;
21501;SDS011;27639;48.674;9.242;2022-07-12T08:32:16;2.38;;;0.90;;
21501;SDS011;27639;48.674;9.242;2022-07-12T08:34:41;2.42;;;1.13;;
21501;SDS011;27639;48.674;9.242;2022-07-12T08:37:07;2.20;;;0.90;;
21501;SDS011;27639;48.674;9.242;2022-07-12T08:39:33;2.40;;;1.02;;
21501;SDS011;27639;48.674;9.242;2022-07-12T08:41:58;2.25;;;1.10;;
21501;SDS011;27639;48.674;9.242;2022-07-12T08:44:24;2.50;;;1.20;;
21501;SDS011;27639;48.674;9.242;2022-07-12T08:46:50;2.72;;;1.40;;
21501;SDS011;27639;48.674;9.242;2022-07-12T08:49:17;3.30;;;1.50;;
21501;SDS011;27639;48.674;9.242;2022-07-12T08:51:43;2.80;;;1.48;;
21501;SDS011;27639;48.674;9.242;2022-07-12T08:54:09;3.35;;;1.60;;
21501;SDS011;27639;48.674;9.242;2022-07-12T08:56:37;6.57;;;2.60;;
21501;SDS011;27639;48.674;9.242;2022-07-12T09:04:13;3.05;;;1.02;;
21501;SDS011;27639;48.674;9.242;2022-07-12T09:06:42;1.83;;;0.70;;
21501;SDS011;27639;48.674;9.242;2022-07-12T09:09:08;2.90;;;0.90;;
21501;SDS011;27639;48.674;9.242;2022-07-12T09:11:37;2.72;;;1.20;;
21501;SDS011;27639;48.674;9.242;2022-07-12T09:14:04;1.90;;;0.70;;
21501;SDS011;27639;48.674;9.242;2022-07-12T09:16:30;1.60;;;0.70;;
21501;SDS011;27639;48.674;9.242;2022-07-12T09:19:15;1.70;;;0.73;;
21501;SDS011;27639;48.674;9.242;2022-07-12T09:21:46;2.05;;;0.70;;
21501;SDS011;27639;48.674;9.242;2022-07-12T09:24:14;2.08;;;0.82;;
21501;SDS011;27639;48.674;9.242;2022-07-12T09:26:41;2.67;;;1.00;;
21501;SDS011;27639;48.674;9.242;2022-07-12T09:29:10;2.30;;;0.90;;
21501;SDS011;27639;48.674;9.242;2022-07-12T09:34:34;3.35;;;1.00;;
21501;SDS011;27639;48.674;9.242;2022-07-12T09:37:19;3.92;;;1.00;;
21501;SDS011;27639;48.674;9.242;2022-07-12T09:39:45;2.45;;;1.15;;
21501;SDS011;27639;48.674;9.242;2022-07-12T09:42:12;2.40;;;1.20;;
21501;SDS011;27639;48.674;9.242;2022-07-12T09:44:39;2.65;;;1.00;;
21501;SDS011;27639;48.674;9.242;2022-07-12T09:47:06;2.75;;;1.00;;
21501;SDS011;27639;48.674;9.242;2022-07-12T09:49:38;3.40;;;1.05;;
21501;SDS011;27639;48.674;9.242;2022-07-12T09:52:04;3.45;;;1.10;;
21501;SDS011;27639;48.674;9.242;2022-07-12T09:54:31;2.70;;;1.20;;
21501;SDS011;27639;48.674;9.242;2022-07-12T09:57:03;3.17;;;1.17;;
21501;SDS011;27639;48.674;9.242;2022-07-12T09:59:34;2.78;;;1.10;;
21501;SDS011;27639;48.674;9.242;2022-07-12T10:02:01;2.40;;;0.90;;
21501;SDS011;27639;48.674;9.242;2022-07-12T10:04:30;1.90;;;0.80;;
21501;SDS011;27639;48.674;9.242;2022-07-12T10:06:58;2.13;;;0.90;;
21501;SDS011;27639;48.674;9.242;2022-07-12T10:09:24;2.58;;;0.90;;
21501;SDS011;27639;48.674;9.242;2022-07-12T10:11:51;1.58;;;0.75;;
21501;SDS011;27639;48.674;9.242;2022-07-12T10:14:18;4.20;;;1.10;;
21501;SDS011;27639;48.674;9.242;2022-07-12T10:16:45;2.58;;;0.90;;
21501;SDS011;27639;48.674;9.242;2022-07-12T10:19:24;1.88;;;0.98;;
21501;SDS011;27639;48.674;9.242;2022-07-12T10:22:00;2.00;;;0.90;;
21501;SDS011;27639;48.674;9.242;2022-07-12T10:29:40;2.08;;;0.90;;
21501;SDS011;27639;48.674;9.242;2022-07-12T10:32:23;3.47;;;0.95;;
21501;SDS011;27639;48.674;9.242;2022-07-12T10:34:58;2.40;;;0.90;;
21501;SDS011;27639;48.674;9.242;2022-07-12T10:37:24;3.28;;;1.40;;
21501;SDS011;27639;48.674;9.242;2022-07-12T10:45:28;2.42;;;0.80;;
21501;SDS011;27639;48.674;9.242;2022-07-12T10:47:57;1.83;;;0.80;;
21501;SDS011;27639;48.674;9.242;2022-07-12T10:58:33;2.35;;;0.90;;
21501;SDS011;27639;48.674;9.242;2022-07-12T11:01:02;2.22;;;0.90;;
21501;SDS011;27639;48.674;9.242;2022-07-12T11:03:30;1.67;;;0.70;;
21501;SDS011;27639;48.674;9.242;2022-07-12T11:06:04;1.90;;;0.75;;
21501;SDS011;27639;48.674;9.242;2022-07-12T11:08:31;3.10;;;0.70;;
21501;SDS011;27639;48.674;9.242;2022-07-12T11:10:57;1.70;;;0.70;;
21501;SDS011;27639;48.674;9.242;2022-07-12T11:13:23;1.40;;;0.60;;
21501;SDS011;27639;48.674;9.242;2022-07-12T11:15:59;2.53;;;0.70;;
21501;SDS011;27639;48.674;9.242;2022-07-12T11:18:32;2.13;;;0.65;;
21501;SDS011;27639;48.674;9.242;2022-07-12T11:21:01;3.47;;;0.90;;
21501;SDS011;27639;48.674;9.242;2022-07-12T11:23:28;1.73;;;0.60;;
21501;SDS011;27639;48.674;9.242;2022-07-12T11:25:58;1.80;;;0.65;;
21501;SDS011;27639;48.674;9.242;2022-07-12T11:28:25;2.15;;;0.80;;
21501;SDS011;27639;48.674;9.242;2022-07-12T11:31:02;1.73;;;0.68;;
21501;SDS011;27639;48.674;9.242;2022-07-12T11:33:34;1.73;;;0.57;;
21501;SDS011;27639;48.674;9.242;2022-07-12T11:36:03;1.50;;;0.60;;
21501;SDS011;27639;48.674;9.242;2022-07-12T11:38:30;1.38;;;0.70;;
21501;SDS011;27639;48.674;9.242;2022-07-12T11:40:57;2.03;;;0.70;;
21501;SDS011;27639;48.674;9.242;2022-07-12T11:43:23;1.30;;;0.50;;
21501;SDS011;27639;48.674;9.242;2022-07-12T11:45:50;1.58;;;0.60;;
21501;SDS011;27639;48.674;9.242;2022-07-12T11:48:16;1.17;;;0.57;;
21501;SDS011;27639;48.674;9.242;2022-07-12T11:50:42;1.67;;;0.60;;
21501;SDS011;27639;48.674;9.242;2022-07-12T11:55:46;1.90;;;0.77;;
21501;SDS011;27639;48.674;9.242;2022-07-12T11:58:14;1.10;;;0.50;;
21501;SDS011;27639;48.674;9.242;2022-07-12T12:00:41;2.72;;;0.77;;
21501;SDS011;27639;48.674;9.242;2022-07-12T12:03:07;1.98;;;0.70;;
21501;SDS011;27639;48.674;9.242;2022-07-12T12:05:33;1.58;;;0.63;;
21501;SDS011;27639;48.674;9.242;2022-07-12T12:08:00;1.48;;;0.70;;
21501;SDS011;27639;48.674;9.242;2022-07-12T12:10:26;2.80;;;0.68;;
21501;SDS011;27639;48.674;9.242;2022-07-12T12:12:53;2.40;;;0.60;;
21501;SDS011;27639;48.674;9.242;2022-07-12T12:15:24;1.85;;;0.57;;
21501;SDS011;27639;48.674;9.242;2022-07-12T12:17:55;1.40;;;0.50;;
21501;SDS011;27639;48.674;9.242;2022-07-12T12:20:23;2.45;;;0.65;;
21501;SDS011;27639;48.674;9.242;2022-07-12T12:22:51;2.20;;;0.70;;
21501;SDS011;27639;48.674;9.242;2022-07-12T12:25:21;2.80;;;0.70;;
21501;SDS011;27639;48.674;9.242;2022-07-12T12:27:53;1.60;;;0.70;;
21501;SDS011;27639;48.674;9.242;2022-07-12T12:30:20;1.63;;;0.70;;
21501;SDS011;27639;48.674;9.242;2022-07-12T12:32:46;2.13;;;0.60;;
21501;SDS011;27639;48.674;9.242;2022-07-12T12:35:18;1.45;;;0.60;;
21501;SDS011;27639;48.674;9.242;2022-07-12T12:37:53;1.63;;;0.70;;
21501;SDS011;27639;48.674;9.242;2022-07-12T12:40:38;1.25;;;0.50;;
21501;SDS011;27639;48.674;9.242;2022-07-12T12:43:10;1.13;;;0.50;;
21501;SDS011;27639;48.674;9.242;2022-07-12T12:45:50;1.35;;;0.55;;
21501;SDS011;27639;48.674;9.242;2022-07-12T12:48:20;1.70;;;0.70;;
21501;SDS011;27639;48.674;9.242;2022-07-12T12:50:48;1.50;;;0.60;;
21501;SDS011;27639;48.674;9.242;2022-07-12T12:53:17;2.22;;;0.60;;
21501;SDS011;27639;48.674;9.242;2022-07-12T12:55:48;1.50;;;0.63;;
21501;SDS011;27639;48.674;9.242;2022-07-12T12:58:18;1.40;;;0.60;;
21501;SDS011;27639;48.674;9.242;2022-07-12T13:00:46;2.08;;;0.63;;
21501;SDS011;27639;48.674;9.242;2022-07-12T13:03:13;1.52;;;0.65;;
21501;SDS011;27639;48.674;9.242;2022-07-12T13:05:44;0.98;;;0.50;;
21501;SDS011;27639;48.674;9.242;2022-07-12T13:08:11;0.98;;;0.40;;
21501;SDS011;27639;48.674;9.242;2022-07-12T13:10:38;1.33;;;0.52;;
21501;SDS011;27639;48.674;9.242;2022-07-12T13:13:05;2.00;;;0.52;;
21501;SDS011;27639;48.674;9.242;2022-07-12T13:15:32;2.88;;;0.70;;
21501;SDS011;27639;48.674;9.242;2022-07-12T13:17:59;1.55;;;0.50;;
21501;SDS011;27639;48.674;9.242;2022-07-12T13:20:26;0.95;;;0.45;;
21501;SDS011;27639;48.674;9.242;2022-07-12T13:22:52;1.38;;;0.70;;
21501;SDS011;27639;48.674;9.242;2022-07-12T13:25:18;1.33;;;0.60;;
21501;SDS011;27639;48.674;9.242;2022-07-12T13:27:44;1.48;;;0.70;;
21501;SDS011;27639;48.674;9.242;2022-07-12T13:30:11;1.90;;;0.75;;
21501;SDS011;27639;48.674;9.242;2022-07-12T13:32:38;1.67;;;0.70;;
21501;SDS011;27639;48.674;9.242;2022-07-12T13:35:04;1.13;;;0.50;;
21501;SDS011;27639;48.674;9.242;2022-07-12T13:37:32;1.45;;;0.60;;
21501;SDS011;27639;48.674;9.242;2022-07-12T13:39:58;1.75;;;0.73;;
21501;SDS011;27639;48.674;9.242;2022-07-12T13:42:36;2.38;;;0.60;;
21501;SDS011;27639;48.674;9.242;2022-07-12T13:45:11;1.43;;;0.60;;
21501;SDS011;27639;48.674;9.242;2022-07-12T13:47:41;1.38;;;0.55;;
21501;SDS011;27639;48.674;9.242;2022-07-12T13:50:07;1.80;;;0.65;;
21501;SDS011;27639;48.674;9.242;2022-07-12T13:52:35;1.42;;;0.55;;
21501;SDS011;27639;48.674;9.242;2022-07-12T13:55:01;1.92;;;0.70;;
21501;SDS011;27639;48.674;9.242;2022-07-12T13:57:27;1.42;;;0.60;;
21501;SDS011;27639;48.674;9.242;2022-07-12T13:59:55;1.42;;;0.45;;
21501;SDS011;27639;48.674;9.242;2022-07-12T14:02:22;1.30;;;0.50;;
21501;SDS011;27639;48.674;9.242;2022-07-12T14:04:48;1.52;;;0.60;;
21501;SDS011;27639;48.674;9.242;2022-07-12T14:07:13;2.90;;;0.70;;
21501;SDS011;27639;48.674;9.242;2022-07-12T14:09:39;1.30;;;0.40;;
21501;SDS011;27639;48.674;9.242;2022-07-12T14:12:05;2.38;;;0.50;;
21501;SDS011;27639;48.674;9.242;2022-07-12T14:14:33;1.23;;;0.50;;
21501;SDS011;27639;48.674;9.242;2022-07-12T14:17:19;1.98;;;0.50;;
21501;SDS011;27639;48.674;9.242;2022-07-12T14:19:46;1.25;;;0.52;;
21501;SDS011;27639;48.674;9.242;2022-07-12T14:22:11;2.17;;;0.70;;
21501;SDS011;27639;48.674;9.242;2022-07-12T14:24:37;1.20;;;0.50;;
21501;SDS011;27639;48.674;9.242;2022-07-12T14:27:02;1.40;;;0.60;;
21501;SDS011;27639;48.674;9.242;2022-07-12T14:29:28;3.38;;;0.50;;
21501;SDS011;27639;48.674;9.242;2022-07-12T14:31:54;1.50;;;0.50;;
21501;SDS011;27639;48.674;9.242;2022-07-12T14:34:21;5.05;;;0.50;;
21501;SDS011;27639;48.674;9.242;2022-07-12T14:36:47;1.52;;;0.40;;
21501;SDS011;27639;48.674;9.242;2022-07-12T14:39:13;1.50;;;0.60;;
21501;SDS011;27639;48.674;9.242;2022-07-12T14:41:38;1.02;;;0.45;;
21501;SDS011;27639;48.674;9.242;2022-07-12T14:44:04;1.25;;;0.50;;
21501;SDS011;27639;48.674;9.242;2022-07-12T14:46:32;1.27;;;0.50;;
21501;SDS011;27639;48.674;9.242;2022-07-12T14:48:58;1.25;;;0.50;;
21501;SDS011;27639;48.674;9.242;2022-07-12T14:51:24;2.33;;;0.55;;
21501;SDS011;27639;48.674;9.242;2022-07-12T14:53:50;0.90;;;0.45;;
21501;SDS011;27639;48.674;9.242;2022-07-12T14:56:17;1.60;;;0.50;;
21501;SDS011;27639;48.674;9.242;2022-07-12T14:58:43;1.42;;;0.45;;
21501;SDS011;27639;48.674;9.242;2022-07-12T15:01:09;1.33;;;0.47;;
21501;SDS011;27639;48.674;9.242;2022-07-12T15:03:35;1.45;;;0.50;;
21501;SDS011;27639;48.674;9.242;2022-07-12T15:06:00;0.73;;;0.40;;
21501;SDS011;27639;48.674;9.242;2022-07-12T15:08:26;2.17;;;0.60;;
21501;SDS011;27639;48.674;9.242;2022-07-12T15:10:51;0.93;;;0.43;;
21501;SDS011;27639;48.674;9.242;2022-07-12T15:13:17;1.23;;;0.40;;
21501;SDS011;27639;48.674;9.242;2022-07-12T15:15:43;1.95;;;0.50;;
21501;SDS011;27639;48.674;9.242;2022-07-12T15:18:09;2.10;;;0.50;;